createdAt,value
2022-10-19T00:02:09.122Z,102010.03
2022-10-19T00:04:35.544Z,102004.13
2022-10-19T00:07:01.886Z,102008.38
2022-10-19T00:09:29.136Z,102008.97
2022-10-19T00:11:56.217Z,102011.47
2022-10-19T00:14:23.732Z,102011.84
2022-10-19T00:16:52.269Z,102013.59
2022-10-19T00:19:22.073Z,102010.31
2022-10-19T00:24:20.507Z,102022.66
2022-10-19T00:26:47.172Z,102020.22
2022-10-19T00:29:14.554Z,102011.59
2022-10-19T00:31:41.777Z,102015.94
2022-10-19T00:34:08.257Z,102028.66
2022-10-19T00:36:38.088Z,102022.47
2022-10-19T00:39:06.297Z,102024.34
2022-10-19T00:41:35.543Z,102024.28
2022-10-19T00:44:03.645Z,102028.59
2022-10-19T00:46:32.630Z,102016.16
2022-10-19T00:49:10.798Z,102012.63
2022-10-19T00:51:40.645Z,102024.63
2022-10-19T00:54:09.027Z,102017.34
2022-10-19T00:56:38.126Z,102020.22
2022-10-19T00:59:06.179Z,102025.94
2022-10-19T01:01:34.108Z,102020.06
2022-10-19T01:04:01.501Z,102024.63
2022-10-19T01:06:28.529Z,102024.38
2022-10-19T01:08:55.026Z,102027.31
2022-10-19T01:11:43.088Z,102022.84
2022-10-19T01:14:21.718Z,102032.38
2022-10-19T01:16:58.825Z,102025.31
2022-10-19T01:19:38.185Z,102030.66
2022-10-19T01:22:36.430Z,102021.75
2022-10-19T01:25:23.001Z,102022.78
2022-10-19T01:28:11.170Z,102022.97
2022-10-19T01:30:57.426Z,102021.94
2022-10-19T01:33:29.433Z,102020.16
2022-10-19T01:36:05.900Z,102021.19
2022-10-19T01:38:50.310Z,102013.59
2022-10-19T01:41:38.020Z,102013.25
2022-10-19T01:44:13.916Z,102011.31
2022-10-19T01:46:43.641Z,102011.25
2022-10-19T01:49:28.298Z,102007.69
2022-10-19T01:51:59.844Z,102021.25
2022-10-19T01:54:30.845Z,102010.25
2022-10-19T01:56:59.949Z,102018.97
2022-10-19T01:59:26.433Z,102009.75
2022-10-19T02:01:54.662Z,102012.66
2022-10-19T02:04:23.589Z,102013.75
2022-10-19T02:06:52.876Z,102016.09
2022-10-19T02:09:20.149Z,102009.94
2022-10-19T02:11:56.923Z,102014.91
2022-10-19T02:14:29.301Z,102006.09
2022-10-19T02:17:14.665Z,102002.09
2022-10-19T02:19:41.565Z,102012.72
2022-10-19T02:22:08.202Z,102010.41
2022-10-19T02:24:34.595Z,102014.63
2022-10-19T02:27:04.746Z,102005.88
2022-10-19T02:29:33.285Z,102005.34
2022-10-19T02:32:00.948Z,102006.88
2022-10-19T02:34:27.754Z,101993.84
2022-10-19T02:36:55.175Z,101994.19
2022-10-19T02:39:22.245Z,102002.09
2022-10-19T02:42:12.614Z,102000.22
2022-10-19T02:44:57.326Z,101989.44
2022-10-19T02:47:47.807Z,101990.50
2022-10-19T02:50:14.428Z,101987.56
2022-10-19T02:52:41.328Z,101987.03
2022-10-19T02:55:08.785Z,101993.94
2022-10-19T02:57:36.043Z,101983.72
2022-10-19T03:00:05.214Z,101997.75
2022-10-19T03:02:31.621Z,101987.28
2022-10-19T03:04:58.062Z,101994.00
2022-10-19T03:07:25.150Z,101997.47
2022-10-19T03:09:51.522Z,101998.09
2022-10-19T03:12:18.490Z,101993.97
2022-10-19T03:14:44.822Z,101995.00
2022-10-19T03:17:11.410Z,101999.78
2022-10-19T03:19:38.000Z,101998.44
2022-10-19T03:22:04.645Z,101998.44
2022-10-19T03:24:32.035Z,102003.38
2022-10-19T03:26:58.414Z,102011.03
2022-10-19T03:29:24.953Z,102008.09
2022-10-19T03:31:51.273Z,102004.41
2022-10-19T03:34:17.639Z,102005.72
2022-10-19T03:36:44.006Z,102005.94
2022-10-19T03:39:13.655Z,102016.88
2022-10-19T03:41:40.806Z,102009.75
2022-10-19T03:44:08.203Z,102011.06
2022-10-19T03:46:35.428Z,102018.88
2022-10-19T03:49:02.285Z,102014.78
2022-10-19T03:51:30.159Z,102020.91
2022-10-19T03:53:59.989Z,102019.47
2022-10-19T03:56:28.494Z,102026.16
2022-10-19T03:58:56.480Z,102029.19
2022-10-19T04:01:25.976Z,102027.03
2022-10-19T04:04:04.021Z,102031.97
2022-10-19T04:06:34.519Z,102036.94
2022-10-19T04:09:01.659Z,102029.94
2022-10-19T04:11:29.709Z,102040.41
2022-10-19T04:13:57.610Z,102044.72
2022-10-19T04:16:25.798Z,102052.72
2022-10-19T04:18:53.198Z,102053.50
2022-10-19T04:21:25.678Z,102046.91
2022-10-19T04:23:54.497Z,102051.72
2022-10-19T04:26:20.893Z,102058.78
2022-10-19T04:28:47.382Z,102061.84
2022-10-19T04:31:14.053Z,102062.28
2022-10-19T04:33:40.940Z,102073.69
2022-10-19T04:36:09.337Z,102074.78
2022-10-19T04:38:36.597Z,102075.28
2022-10-19T04:41:09.998Z,102072.88
2022-10-19T04:43:36.949Z,102086.78
2022-10-19T04:46:22.952Z,102071.78
2022-10-19T04:48:49.541Z,102072.78
2022-10-19T04:51:16.591Z,102069.59
2022-10-19T04:53:43.526Z,102078.09
2022-10-19T04:56:14.075Z,102072.72
2022-10-19T04:58:40.695Z,102074.59
2022-10-19T05:01:17.882Z,102066.28
2022-10-19T05:03:44.947Z,102069.59
2022-10-19T05:06:12.791Z,102066.19
2022-10-19T05:08:39.269Z,102073.06
2022-10-19T05:11:14.336Z,102072.13
2022-10-19T05:13:41.257Z,102076.50
2022-10-19T05:16:10.678Z,102073.44
2022-10-19T05:18:37.015Z,102071.50
2022-10-19T05:21:06.759Z,102077.22
2022-10-19T05:26:06.126Z,102081.72
2022-10-19T05:28:33.281Z,102073.41
2022-10-19T05:31:14.466Z,102080.06
2022-10-19T05:33:41.768Z,102076.28
2022-10-19T05:36:12.224Z,102064.28
2022-10-19T05:38:38.565Z,102067.16
2022-10-19T05:41:05.029Z,102058.13
2022-10-19T05:43:31.326Z,102059.81
2022-10-19T05:45:57.649Z,102065.69
2022-10-19T05:48:24.304Z,102054.03
2022-10-19T05:50:55.172Z,102068.34
2022-10-19T05:53:21.608Z,102070.13
2022-10-19T05:55:47.960Z,102071.19
2022-10-19T05:58:14.361Z,102059.94
2022-10-19T06:00:40.740Z,102069.25
2022-10-19T06:03:07.042Z,102080.03
2022-10-19T06:05:36.389Z,102085.78
2022-10-19T06:08:02.834Z,102080.28
2022-10-19T06:10:29.173Z,102086.44
2022-10-19T06:12:55.486Z,102087.97
2022-10-19T06:15:21.829Z,102090.53
2022-10-19T06:17:48.199Z,102088.13
2022-10-19T06:20:14.672Z,102095.75
2022-10-19T06:22:42.346Z,102101.38
2022-10-19T06:25:09.080Z,102096.41
2022-10-19T06:27:35.782Z,102099.16
2022-10-19T06:30:02.904Z,102104.47
2022-10-19T06:32:29.295Z,102100.25
2022-10-19T06:34:56.657Z,102101.69
2022-10-19T06:37:23.209Z,102103.31
2022-10-19T06:39:49.617Z,102110.34
2022-10-19T06:42:15.971Z,102110.44
2022-10-19T06:44:42.291Z,102107.44
2022-10-19T06:47:08.650Z,102114.53
2022-10-19T06:49:35.818Z,102120.41
2022-10-19T06:52:02.703Z,102124.19
2022-10-19T06:54:29.437Z,102127.22
2022-10-19T06:56:55.871Z,102126.25
2022-10-19T06:59:22.303Z,102129.59
2022-10-19T07:01:48.638Z,102122.59
2022-10-19T07:04:15.042Z,102136.06
2022-10-19T07:06:41.439Z,102135.50
2022-10-19T07:09:07.875Z,102133.28
2022-10-19T07:11:34.462Z,102139.47
2022-10-19T07:14:00.866Z,102141.97
2022-10-19T07:16:27.197Z,102145.84
2022-10-19T07:18:53.934Z,102141.94
2022-10-19T07:21:22.311Z,102153.34
2022-10-19T07:23:48.878Z,102154.38
2022-10-19T07:26:18.048Z,102150.00
2022-10-19T07:28:46.990Z,102162.47
2022-10-19T07:31:20.464Z,102160.72
2022-10-19T07:33:47.757Z,102161.84
2022-10-19T07:36:14.206Z,102163.81
2022-10-19T07:38:41.341Z,102164.56
2022-10-19T07:41:11.038Z,102159.25
2022-10-19T07:43:37.400Z,102160.66
2022-10-19T07:46:07.089Z,102168.88
2022-10-19T07:48:34.702Z,102160.78
2022-10-19T07:51:03.121Z,102161.94
2022-10-19T07:53:29.564Z,102156.44
2022-10-19T07:55:56.163Z,102161.94
2022-10-19T07:58:22.550Z,102165.44
2022-10-19T08:00:48.978Z,102167.69
2022-10-19T08:06:03.413Z,102172.94
2022-10-19T08:08:30.315Z,102172.28
2022-10-19T08:10:57.273Z,102170.44
2022-10-19T08:13:23.902Z,102172.59
2022-10-19T08:15:50.329Z,102183.88
2022-10-19T08:18:18.324Z,102173.97
2022-10-19T08:20:44.983Z,102169.97
2022-10-19T08:23:11.302Z,102182.34
2022-10-19T08:25:37.688Z,102188.53
2022-10-19T08:28:04.144Z,102186.63
2022-10-19T08:30:30.455Z,102186.94
2022-10-19T08:32:56.786Z,102189.19
2022-10-19T08:35:23.209Z,102189.69
2022-10-19T08:37:49.932Z,102187.44
2022-10-19T08:40:24.019Z,102186.09
2022-10-19T08:43:17.813Z,102193.09
2022-10-19T08:46:17.143Z,102192.75
2022-10-19T08:48:43.640Z,102193.88
2022-10-19T08:51:13.014Z,102195.19
2022-10-19T08:53:45.442Z,102190.59
2022-10-19T08:56:51.549Z,102200.19
2022-10-19T08:59:40.663Z,102188.38
2022-10-19T09:02:13.673Z,102188.03
2022-10-19T09:04:42.748Z,102186.78
2022-10-19T09:07:24.329Z,102194.38
2022-10-19T09:10:14.681Z,102195.44
2022-10-19T09:12:59.198Z,102210.06
2022-10-19T09:15:41.478Z,102218.88
2022-10-19T09:18:13.818Z,102221.38
2022-10-19T09:20:44.452Z,102230.75
2022-10-19T09:23:34.016Z,102231.84
2022-10-19T09:26:00.389Z,102238.78
2022-10-19T09:28:43.726Z,102235.88
2022-10-19T09:31:15.613Z,102232.72
2022-10-19T09:33:45.209Z,102240.78
2022-10-19T09:36:22.279Z,102240.38
2022-10-19T09:38:50.142Z,102240.38
2022-10-19T09:41:22.448Z,102228.16
2022-10-19T09:43:53.823Z,102222.63
2022-10-19T09:46:27.767Z,102226.50
2022-10-19T09:48:54.150Z,102234.88
2022-10-19T09:51:20.986Z,102236.03
2022-10-19T09:53:51.836Z,102236.97
2022-10-19T09:56:21.228Z,102235.28
2022-10-19T09:58:50.208Z,102239.84
2022-10-19T10:01:43.043Z,102234.09
2022-10-19T10:04:14.794Z,102237.38
2022-10-19T10:06:43.470Z,102245.69
2022-10-19T10:09:23.676Z,102247.63
2022-10-19T10:11:51.337Z,102250.88
2022-10-19T10:14:25.709Z,102256.03
2022-10-19T10:17:04.100Z,102260.75
2022-10-19T10:19:32.933Z,102251.41
2022-10-19T10:22:00.108Z,102255.59
2022-10-19T10:24:29.113Z,102258.25
2022-10-19T10:26:58.364Z,102262.44
2022-10-19T10:29:29.830Z,102267.19
2022-10-19T10:32:19.964Z,102261.41
2022-10-19T10:35:01.075Z,102270.28
2022-10-19T10:37:29.998Z,102266.69
2022-10-19T10:40:00.524Z,102270.69
2022-10-19T10:42:36.285Z,102262.03
2022-10-19T10:45:02.890Z,102269.44
2022-10-19T10:47:30.007Z,102255.25
2022-10-19T10:50:21.871Z,102271.72
2022-10-19T10:53:02.715Z,102273.13
2022-10-19T10:55:30.920Z,102281.88
2022-10-19T10:58:15.787Z,102283.41
2022-10-19T11:00:42.947Z,102284.47
2022-10-19T11:03:26.079Z,102291.69
2022-10-19T11:06:00.364Z,102276.50
2022-10-19T11:08:59.779Z,102271.03
2022-10-19T11:11:39.370Z,102276.09
2022-10-19T11:14:17.609Z,102275.97
2022-10-19T11:16:47.737Z,102275.34
2022-10-19T11:19:18.168Z,102276.97
2022-10-19T11:21:55.948Z,102256.47
2022-10-19T11:24:26.396Z,102258.75
2022-10-19T11:27:21.788Z,102267.50
2022-10-19T11:30:18.360Z,102268.31
2022-10-19T11:32:56.864Z,102272.94
2022-10-19T11:35:54.462Z,102272.19
2022-10-19T11:38:30.061Z,102260.97
2022-10-19T11:41:23.403Z,102254.75
2022-10-19T11:44:17.699Z,102253.97
2022-10-19T11:46:59.055Z,102244.13
2022-10-19T11:49:40.082Z,102240.47
2022-10-19T11:52:23.668Z,102242.94
2022-10-19T11:55:19.382Z,102238.25
2022-10-19T11:57:48.750Z,102246.31
2022-10-19T12:00:37.580Z,102243.28
2022-10-19T12:03:49.668Z,102245.28
2022-10-19T12:06:31.620Z,102245.78
2022-10-19T12:09:09.928Z,102249.59
2022-10-19T12:11:58.030Z,102245.78
2022-10-19T12:14:30.264Z,102254.38
2022-10-19T12:17:02.058Z,102241.63
2022-10-19T12:19:40.653Z,102244.78
2022-10-19T12:22:15.242Z,102240.38
2022-10-19T12:24:41.637Z,102232.44
2022-10-19T12:27:13.629Z,102240.13
2022-10-19T12:29:44.259Z,102234.28
2022-10-19T12:32:15.092Z,102245.44
2022-10-19T12:34:48.888Z,102237.03
2022-10-19T12:37:47.218Z,102234.88
2022-10-19T12:40:25.309Z,102231.50
2022-10-19T12:43:13.198Z,102238.09
2022-10-19T12:45:45.113Z,102231.66
2022-10-19T12:48:15.889Z,102234.34
2022-10-19T12:50:48.342Z,102221.03
2022-10-19T12:53:38.546Z,102226.47
2022-10-19T12:56:26.788Z,102229.16
2022-10-19T12:58:59.730Z,102223.84
2022-10-19T13:01:41.095Z,102225.66
2022-10-19T13:04:15.670Z,102219.03
2022-10-19T13:06:51.174Z,102223.72
2022-10-19T13:09:36.289Z,102225.25
2022-10-19T13:12:19.346Z,102220.97
2022-10-19T13:14:48.054Z,102221.44
2022-10-19T13:17:50.978Z,102216.66
2022-10-19T13:20:17.285Z,102219.09
2022-10-19T13:22:50.741Z,102214.84
2022-10-19T13:25:17.176Z,102218.06
2022-10-19T13:27:44.886Z,102221.31
2022-10-19T13:30:39.257Z,102207.84
2022-10-19T13:33:31.248Z,102212.81
2022-10-19T13:36:00.446Z,102207.72
2022-10-19T13:38:34.015Z,102199.16
2022-10-19T13:41:09.098Z,102206.22
2022-10-19T13:43:50.258Z,102205.34
2022-10-19T13:46:21.286Z,102196.72
2022-10-19T13:49:17.750Z,102198.44
2022-10-19T13:52:08.326Z,102204.97
2022-10-19T13:54:43.855Z,102203.63
2022-10-19T13:57:16.260Z,102202.75
2022-10-19T13:59:45.474Z,102197.16
2022-10-19T14:02:37.396Z,102205.03
2022-10-19T14:05:12.231Z,102201.28
2022-10-19T14:07:55.147Z,102198.66
2022-10-19T14:10:28.283Z,102187.34
2022-10-19T14:13:00.662Z,102200.47
2022-10-19T14:15:30.798Z,102200.69
2022-10-19T14:17:59.551Z,102194.69
2022-10-19T14:20:37.616Z,102199.00
2022-10-19T14:23:28.703Z,102189.56
2022-10-19T14:26:03.322Z,102193.88
2022-10-19T14:28:30.783Z,102190.38
2022-10-19T14:31:01.132Z,102186.00
2022-10-19T14:33:34.260Z,102180.09
2022-10-19T14:36:01.420Z,102180.47
2022-10-19T14:38:39.875Z,102179.78
2022-10-19T14:41:19.015Z,102182.03
2022-10-19T14:43:45.539Z,102174.94
2022-10-19T14:46:16.196Z,102172.78
2022-10-19T14:48:48.639Z,102170.56
2022-10-19T14:51:27.101Z,102169.63
2022-10-19T14:54:05.228Z,102176.81
2022-10-19T14:56:42.787Z,102175.94
2022-10-19T14:59:18.350Z,102180.63
2022-10-19T15:01:50.432Z,102179.28
2022-10-19T15:04:28.233Z,102186.94
2022-10-19T15:06:55.770Z,102173.53
2022-10-19T15:09:48.651Z,102178.84
2022-10-19T15:12:21.364Z,102178.69
2022-10-19T15:14:48.567Z,102174.06
2022-10-19T15:17:28.166Z,102172.16
2022-10-19T15:19:56.077Z,102177.34
2022-10-19T15:22:24.076Z,102167.28
2022-10-19T15:24:55.643Z,102182.94
2022-10-19T15:27:29.064Z,102169.22
2022-10-19T15:29:57.005Z,102175.75
2022-10-19T15:32:45.176Z,102177.19
2022-10-19T15:35:19.769Z,102174.44
2022-10-19T15:37:49.003Z,102175.81
2022-10-19T15:40:36.099Z,102168.84
2022-10-19T15:43:34.669Z,102171.91
2022-10-19T15:46:20.973Z,102169.56
2022-10-19T15:48:58.296Z,102175.31
2022-10-19T15:51:24.605Z,102172.56
2022-10-19T15:54:02.644Z,102176.94
2022-10-19T15:56:31.093Z,102174.56
2022-10-19T15:58:59.456Z,102171.00
2022-10-19T16:01:28.259Z,102171.69
2022-10-19T16:03:55.278Z,102171.56
2022-10-19T16:06:24.488Z,102173.28
2022-10-19T16:08:51.279Z,102172.50
2022-10-19T16:11:24.277Z,102177.09
2022-10-19T16:13:51.010Z,102171.50
2022-10-19T16:16:29.694Z,102178.00
2022-10-19T16:18:56.844Z,102171.25
2022-10-19T16:21:32.579Z,102172.53
2022-10-19T16:23:59.490Z,102176.75
2022-10-19T16:26:26.440Z,102174.00
2022-10-19T16:28:54.273Z,102179.47
2022-10-19T16:31:21.585Z,102175.78
2022-10-19T16:33:47.963Z,102180.44
2022-10-19T16:36:14.872Z,102179.16
2022-10-19T16:38:41.250Z,102181.25
2022-10-19T16:41:10.160Z,102173.47
2022-10-19T16:43:37.155Z,102167.47
2022-10-19T16:46:04.655Z,102169.41
2022-10-19T16:48:31.819Z,102166.13
2022-10-19T16:51:07.068Z,102174.41
2022-10-19T16:53:34.262Z,102169.44
2022-10-19T16:56:05.711Z,102168.63
2022-10-19T16:58:32.100Z,102174.25
2022-10-19T17:01:01.392Z,102169.06
2022-10-19T17:03:30.872Z,102173.22
2022-10-19T17:05:57.191Z,102177.25
2022-10-19T17:08:36.586Z,102172.34
2022-10-19T17:11:18.767Z,102173.75
2022-10-19T17:13:47.811Z,102173.03
2022-10-19T17:16:15.009Z,102182.47
2022-10-19T17:18:42.965Z,102179.41
2022-10-19T17:21:13.091Z,102178.78
2022-10-19T17:23:40.231Z,102182.91
2022-10-19T17:26:08.080Z,102183.09
2022-10-19T17:28:35.763Z,102184.06
2022-10-19T17:31:07.556Z,102178.88
2022-10-19T17:33:35.093Z,102183.38
2022-10-19T17:36:10.562Z,102183.69
2022-10-19T17:38:37.888Z,102174.09
2022-10-19T17:41:07.655Z,102180.03
2022-10-19T17:43:35.203Z,102175.59
2022-10-19T17:46:02.984Z,102178.22
2022-10-19T17:48:29.860Z,102176.03
2022-10-19T17:50:58.044Z,102173.72
2022-10-19T17:53:24.556Z,102172.78
2022-10-19T17:55:50.919Z,102177.53
2022-10-19T17:58:17.483Z,102183.50
2022-10-19T18:00:43.998Z,102184.44
2022-10-19T18:03:10.522Z,102186.22
2022-10-19T18:05:37.087Z,102183.63
2022-10-19T18:08:03.413Z,102183.94
2022-10-19T18:10:29.754Z,102185.63
2022-10-19T18:12:56.152Z,102185.63
2022-10-19T18:15:22.511Z,102182.44
2022-10-19T18:17:48.851Z,102184.00
2022-10-19T18:20:15.329Z,102178.16
2022-10-19T18:25:09.357Z,102192.03
2022-10-19T18:27:36.073Z,102201.56
2022-10-19T18:30:02.894Z,102188.63
2022-10-19T18:32:29.338Z,102193.31
2022-10-19T18:34:55.745Z,102196.22
2022-10-19T18:37:22.152Z,102191.38
2022-10-19T18:39:48.466Z,102196.16
2022-10-19T18:42:14.884Z,102189.88
2022-10-19T18:44:41.249Z,102186.56
2022-10-19T18:47:07.589Z,102190.19
2022-10-19T18:49:34.289Z,102188.28
2022-10-19T18:52:00.858Z,102185.84
2022-10-19T18:54:27.918Z,102186.78
2022-10-19T18:56:55.193Z,102179.66
2022-10-19T18:59:21.669Z,102181.09
2022-10-19T19:01:48.071Z,102180.91
2022-10-19T19:04:14.648Z,102181.03
2022-10-19T19:06:41.957Z,102180.28
2022-10-19T19:09:10.837Z,102178.56
2022-10-19T19:11:40.675Z,102166.94
2022-10-19T19:14:12.784Z,102179.69
2022-10-19T19:16:40.886Z,102170.47
2022-10-19T19:19:08.525Z,102157.78
2022-10-19T19:21:36.628Z,102160.72
2022-10-19T19:24:05.753Z,102161.25
2022-10-19T19:26:36.816Z,102157.94
2022-10-19T19:29:05.169Z,102160.44
2022-10-19T19:31:31.611Z,102158.03
2022-10-19T19:34:01.035Z,102164.72
2022-10-19T19:36:28.217Z,102159.16
2022-10-19T19:38:56.460Z,102152.16
2022-10-19T19:41:22.883Z,102161.44
2022-10-19T19:43:49.246Z,102170.16
2022-10-19T19:46:18.142Z,102164.47
2022-10-19T19:48:47.173Z,102170.09
2022-10-19T19:51:19.735Z,102165.34
2022-10-19T19:53:47.339Z,102166.19
2022-10-19T19:56:16.046Z,102162.63
2022-10-19T19:58:43.114Z,102156.56
2022-10-19T20:01:20.471Z,102162.22
2022-10-19T20:03:47.673Z,102159.63
2022-10-19T20:06:17.265Z,102163.88
2022-10-19T20:08:45.387Z,102169.56
2022-10-19T20:11:14.371Z,102180.19
2022-10-19T20:13:40.741Z,102184.25
2022-10-19T20:16:09.692Z,102188.28
2022-10-19T20:18:36.145Z,102187.09
2022-10-19T20:21:04.675Z,102186.25
2022-10-19T20:23:31.830Z,102183.03
2022-10-19T20:25:58.241Z,102185.56
2022-10-19T20:28:26.153Z,102188.31
2022-10-19T20:31:03.642Z,102194.84
2022-10-19T20:33:31.788Z,102190.59
2022-10-19T20:36:08.112Z,102182.97
2022-10-19T20:38:35.834Z,102186.84
2022-10-19T20:41:08.188Z,102191.59
2022-10-19T20:43:36.283Z,102184.28
2022-10-19T20:46:07.937Z,102194.22
2022-10-19T20:48:34.335Z,102190.72
2022-10-19T20:51:11.635Z,102187.75
2022-10-19T20:53:38.595Z,102188.16
2022-10-19T20:56:10.115Z,102183.78
2022-10-19T20:58:42.615Z,102184.09
2022-10-19T21:01:19.224Z,102185.72
2022-10-19T21:04:00.701Z,102183.25
2022-10-19T21:06:29.657Z,102189.72
2022-10-19T21:08:56.448Z,102185.09
2022-10-19T21:11:27.098Z,102185.97
2022-10-19T21:13:55.980Z,102186.28
2022-10-19T21:16:24.298Z,102181.72
2022-10-19T21:18:50.801Z,102177.41
2022-10-19T21:21:20.185Z,102173.00
2022-10-19T21:23:49.309Z,102185.53
2022-10-19T21:26:16.708Z,102180.59
2022-10-19T21:28:47.752Z,102181.13
2022-10-19T21:31:15.657Z,102183.56
2022-10-19T21:33:42.276Z,102178.25
2022-10-19T21:36:09.762Z,102176.38
2022-10-19T21:38:36.515Z,102181.53
2022-10-19T21:41:05.739Z,102171.81
2022-10-19T21:43:32.966Z,102164.06
2022-10-19T21:46:02.674Z,102159.06
2022-10-19T21:48:29.931Z,102162.16
2022-10-19T21:50:56.397Z,102161.00
2022-10-19T21:53:25.945Z,102161.94
2022-10-19T21:55:53.667Z,102156.13
2022-10-19T21:58:22.895Z,102154.28
2022-10-19T22:00:49.737Z,102155.34
2022-10-19T22:03:18.863Z,102151.50
2022-10-19T22:05:52.148Z,102143.50
2022-10-19T22:08:18.467Z,102143.50
2022-10-19T22:10:44.787Z,102139.06
2022-10-19T22:13:11.111Z,102139.50
2022-10-19T22:15:39.067Z,102142.81
2022-10-19T22:18:05.436Z,102134.25
2022-10-19T22:20:32.253Z,102135.13
2022-10-19T22:22:58.590Z,102130.47
2022-10-19T22:25:24.914Z,102133.91
2022-10-19T22:27:51.232Z,102146.56
2022-10-19T22:30:17.604Z,102129.66
2022-10-19T22:32:44.017Z,102140.47
2022-10-19T22:35:10.366Z,102133.38
2022-10-19T22:37:36.724Z,102133.81
2022-10-19T22:40:03.465Z,102135.41
2022-10-19T22:42:29.768Z,102131.00
2022-10-19T22:44:56.160Z,102128.38
2022-10-19T22:47:22.525Z,102124.72
2022-10-19T22:49:48.892Z,102124.88
2022-10-19T22:52:16.574Z,102117.75
2022-10-19T22:54:43.266Z,102115.63
2022-10-19T22:57:10.317Z,102124.28
2022-10-19T22:59:36.677Z,102119.03
2022-10-19T23:02:03.623Z,102114.94
2022-10-19T23:04:30.152Z,102121.66
2022-10-19T23:06:56.560Z,102113.09
2022-10-19T23:09:23.081Z,102122.25
2022-10-19T23:11:49.423Z,102121.75
2022-10-19T23:14:15.927Z,102122.97
2022-10-19T23:16:42.252Z,102124.09
2022-10-19T23:19:08.562Z,102124.72
2022-10-19T23:21:34.939Z,102121.91
2022-10-19T23:24:01.333Z,102117.59
2022-10-19T23:26:27.652Z,102123.88
2022-10-19T23:28:54.039Z,102122.72
2022-10-19T23:31:24.614Z,102129.50
2022-10-19T23:33:52.345Z,102129.56
2022-10-19T23:36:27.873Z,102127.38
2022-10-19T23:38:56.161Z,102139.84
2022-10-19T23:41:22.710Z,102134.03
2022-10-19T23:43:49.107Z,102136.97
2022-10-19T23:46:15.538Z,102134.69
2022-10-19T23:48:42.144Z,102130.94
2022-10-19T23:51:12.262Z,102133.34
2022-10-19T23:53:41.427Z,102131.38
2022-10-19T23:56:14.705Z,102123.56
2022-10-19T23:58:41.073Z,102118.22
